Jacksonville, Georgia
Current Conditions -  °F | °C
As of 7:55 AM on Wednesday 26 Nov 2014 (Local Time) from KFZG Reporting Station
Overcast Overcast  
Wind Chill: 48°   Ceiling: 8000
Heat Index: 48°   Visibility: 10mi
Dew Point: 46°   Wind: 3mph
Humidity: 92%   Direction: 290°WNW
Pressure: 30.08"   Gusts: NA
Location:  31.81°N, 82.98°W
Report Text: KFZG 261255Z AUTO 29003KT 10SM SCT070 OVC080 09/08 A3008 RMK AO2 T00910078
Loading
Personal Weather Stations






























Interactive Weather Map New forecast layout! Learn more

10-Day Weather Forecast

Advertisements
Track Severe Weather on mobile